createdAt,value
2022-11-05T00:00:40.642Z,9.15
2022-11-05T00:01:41.295Z,9.13
2022-11-05T00:02:41.993Z,9.12
2022-11-05T00:03:41.281Z,9.12
2022-11-05T00:04:40.594Z,9.11
2022-11-05T00:05:40.634Z,9.10
2022-11-05T00:06:40.571Z,9.09
2022-11-05T00:07:40.542Z,9.09
2022-11-05T00:08:41.175Z,9.08
2022-11-05T00:09:40.483Z,9.07
2022-11-05T00:10:40.486Z,9.07
2022-11-05T00:11:41.146Z,9.06
2022-11-05T00:12:41.219Z,9.06
2022-11-05T00:13:41.143Z,9.05
2022-11-05T00:14:41.910Z,9.04
2022-11-05T00:15:40.464Z,9.03
2022-11-05T00:16:40.429Z,9.02
2022-11-05T00:17:40.423Z,9.02
2022-11-05T00:18:40.434Z,9.00
2022-11-05T00:19:41.061Z,9.00
2022-11-05T00:20:40.414Z,8.99
2022-11-05T00:21:41.046Z,8.98
2022-11-05T00:22:41.016Z,8.97
2022-11-05T00:23:41.017Z,8.96
2022-11-05T00:24:40.425Z,8.95
2022-11-05T00:25:40.357Z,8.95
2022-11-05T00:26:41.783Z,8.95
2022-11-05T00:27:41.241Z,8.93
2022-11-05T00:28:40.306Z,8.93
2022-11-05T00:29:40.398Z,8.93
2022-11-05T00:30:40.329Z,8.93
2022-11-05T00:31:40.935Z,8.93
2022-11-05T00:32:40.288Z,8.92
2022-11-05T00:33:42.198Z,8.92
2022-11-05T00:34:40.922Z,8.92
2022-11-05T00:35:41.695Z,8.91
2022-11-05T00:36:40.306Z,8.91
2022-11-05T00:37:43.299Z,8.91
2022-11-05T00:38:42.100Z,8.92
2022-11-05T00:39:40.851Z,8.92
2022-11-05T00:40:40.209Z,8.92
2022-11-05T00:41:40.821Z,8.94
2022-11-05T00:42:40.788Z,8.94
2022-11-05T00:43:40.799Z,8.95
2022-11-05T00:44:40.527Z,8.95
2022-11-05T00:45:40.110Z,8.96
2022-11-05T00:46:40.200Z,8.97
2022-11-05T00:47:40.750Z,8.97
2022-11-05T00:48:40.835Z,8.98
2022-11-05T00:49:40.741Z,8.98
2022-11-05T00:50:40.117Z,8.99
2022-11-05T00:51:40.070Z,9.00
2022-11-05T00:52:40.041Z,9.00
2022-11-05T00:53:40.030Z,9.01
2022-11-05T00:54:41.964Z,9.02
2022-11-05T00:55:40.065Z,9.02
2022-11-05T00:56:40.668Z,9.02
2022-11-05T00:57:40.292Z,9.03
2022-11-05T00:58:39.962Z,9.03
2022-11-05T00:59:40.622Z,9.04
2022-11-05T01:00:39.952Z,9.04
2022-11-05T01:01:40.019Z,9.03
2022-11-05T01:02:40.067Z,9.04
2022-11-05T01:03:39.932Z,9.04
2022-11-05T01:04:40.573Z,9.04
2022-11-05T01:05:39.962Z,9.04
2022-11-05T01:06:39.909Z,9.03
2022-11-05T01:07:39.894Z,9.03
2022-11-05T01:08:40.704Z,9.02
2022-11-05T01:09:40.533Z,9.01
2022-11-05T01:10:40.518Z,9.00
2022-11-05T01:11:40.766Z,9.00
2022-11-05T01:12:40.499Z,8.99
2022-11-05T01:13:39.926Z,8.98
2022-11-05T01:14:40.475Z,8.97
2022-11-05T01:15:40.473Z,8.95
2022-11-05T01:16:39.810Z,8.93
2022-11-05T01:17:40.434Z,8.91
2022-11-05T01:18:39.777Z,8.90
2022-11-05T01:19:40.416Z,8.89
2022-11-05T01:20:40.419Z,8.86
2022-11-05T01:21:39.781Z,8.85
2022-11-05T01:22:40.390Z,8.83
2022-11-05T01:23:40.368Z,8.81
2022-11-05T01:24:40.474Z,8.80
2022-11-05T01:25:39.683Z,8.78
2022-11-05T01:26:39.757Z,8.77
2022-11-05T01:27:40.328Z,8.75
2022-11-05T01:28:40.416Z,8.74
2022-11-05T01:29:39.791Z,8.72
2022-11-05T01:30:40.712Z,8.70
2022-11-05T01:31:41.312Z,8.68
2022-11-05T01:32:39.589Z,8.67
2022-11-05T01:33:39.669Z,8.66
2022-11-05T01:34:40.249Z,8.63
2022-11-05T01:35:40.244Z,8.62
2022-11-05T01:36:40.253Z,8.61
2022-11-05T01:37:39.569Z,8.60
2022-11-05T01:38:39.545Z,8.58
2022-11-05T01:39:40.199Z,8.57
2022-11-05T01:40:41.009Z,8.56
2022-11-05T01:41:40.179Z,8.55
2022-11-05T01:42:39.552Z,8.54
2022-11-05T01:43:40.166Z,8.53
2022-11-05T01:44:40.153Z,8.52
2022-11-05T01:45:39.453Z,8.52
2022-11-05T01:46:40.121Z,8.50
2022-11-05T01:47:40.372Z,8.49
2022-11-05T01:48:39.693Z,8.49
2022-11-05T01:49:40.116Z,8.47
2022-11-05T01:50:40.089Z,8.46
2022-11-05T01:51:40.841Z,8.45
2022-11-05T01:52:39.453Z,8.44
2022-11-05T01:53:39.407Z,8.42
2022-11-05T01:54:39.382Z,8.41
2022-11-05T01:55:40.038Z,8.40
2022-11-05T01:56:39.346Z,8.38
2022-11-05T01:57:39.315Z,8.37
2022-11-05T01:58:39.992Z,8.36
2022-11-05T01:59:39.322Z,8.35
2022-11-05T02:00:39.407Z,8.34
2022-11-05T02:01:40.076Z,8.33
2022-11-05T02:02:39.441Z,8.31
2022-11-05T02:03:39.947Z,8.30
2022-11-05T02:04:39.943Z,8.29
2022-11-05T02:05:40.918Z,8.28
2022-11-05T02:06:39.254Z,8.26
2022-11-05T02:07:39.896Z,8.25
2022-11-05T02:08:39.899Z,8.24
2022-11-05T02:09:39.875Z,8.24
2022-11-05T02:10:39.194Z,8.22
2022-11-05T02:11:39.185Z,8.21
2022-11-05T02:12:39.294Z,8.19
2022-11-05T02:13:39.735Z,8.19
2022-11-05T02:14:39.825Z,8.18
2022-11-05T02:15:39.180Z,8.17
2022-11-05T02:16:39.794Z,8.16
2022-11-05T02:17:39.116Z,8.14
2022-11-05T02:18:39.142Z,8.14
2022-11-05T02:19:39.106Z,8.13
2022-11-05T02:20:39.089Z,8.13
2022-11-05T02:21:39.738Z,8.13
2022-11-05T02:22:39.057Z,8.12
2022-11-05T02:23:40.872Z,8.12
2022-11-05T02:24:39.057Z,8.12
2022-11-05T02:25:39.699Z,8.12
2022-11-05T02:26:39.160Z,8.12
2022-11-05T02:27:39.686Z,8.12
2022-11-05T02:28:39.009Z,8.11
2022-11-05T02:29:39.007Z,8.10
2022-11-05T02:30:39.738Z,8.10
2022-11-05T02:31:38.951Z,8.10
2022-11-05T02:32:39.639Z,8.10
2022-11-05T02:33:39.619Z,8.10
2022-11-05T02:34:39.859Z,8.09
2022-11-05T02:35:39.859Z,8.09
2022-11-05T02:36:38.941Z,8.09
2022-11-05T02:37:39.570Z,8.09
2022-11-05T02:38:39.560Z,8.09
2022-11-05T02:39:38.880Z,8.09
2022-11-05T02:40:39.790Z,8.11
2022-11-05T02:41:39.541Z,8.11
2022-11-05T02:42:39.541Z,8.11
2022-11-05T02:43:39.659Z,8.11
2022-11-05T02:44:38.808Z,8.11
2022-11-05T02:45:39.750Z,8.11
2022-11-05T02:46:39.477Z,8.11
2022-11-05T02:47:39.742Z,8.10
2022-11-05T02:48:39.442Z,8.10
2022-11-05T02:49:38.761Z,8.09
2022-11-05T02:50:39.672Z,8.09
2022-11-05T02:51:39.423Z,8.08
2022-11-05T02:52:39.411Z,8.07
2022-11-05T02:53:39.663Z,8.06
2022-11-05T02:54:40.155Z,8.06
2022-11-05T02:55:39.382Z,8.05
2022-11-05T02:56:39.374Z,8.04
2022-11-05T02:57:39.362Z,8.04
2022-11-05T02:58:39.343Z,8.03
2022-11-05T02:59:38.683Z,8.03
2022-11-05T03:00:39.318Z,8.02
2022-11-05T03:01:38.798Z,8.01
2022-11-05T03:02:39.400Z,8.00
2022-11-05T03:03:39.555Z,7.99
2022-11-05T03:04:39.285Z,7.99
2022-11-05T03:05:39.274Z,7.98
2022-11-05T03:06:39.546Z,7.97
2022-11-05T03:07:38.575Z,7.97
2022-11-05T03:08:38.555Z,7.98
2022-11-05T03:09:39.225Z,7.96
2022-11-05T03:10:39.216Z,7.97
2022-11-05T03:11:38.546Z,7.96
2022-11-05T03:12:39.202Z,7.95
2022-11-05T03:13:39.186Z,7.93
2022-11-05T03:14:39.166Z,7.92
2022-11-05T03:15:39.156Z,7.91
2022-11-05T03:16:39.155Z,7.90
2022-11-05T03:17:38.492Z,7.89
2022-11-05T03:18:39.138Z,7.88
2022-11-05T03:19:38.447Z,7.87
2022-11-05T03:20:39.106Z,7.86
2022-11-05T03:21:39.291Z,7.85
2022-11-05T03:22:39.069Z,7.83
2022-11-05T03:23:39.078Z,7.82
2022-11-05T03:24:39.070Z,7.79
2022-11-05T03:25:38.378Z,7.78
2022-11-05T03:26:38.382Z,7.75
2022-11-05T03:27:39.039Z,7.73
2022-11-05T03:28:38.468Z,7.70
2022-11-05T03:29:39.019Z,7.68
2022-11-05T03:30:39.011Z,7.66
2022-11-05T03:31:38.356Z,7.66
2022-11-05T03:32:38.397Z,7.64
2022-11-05T03:33:39.209Z,7.60
2022-11-05T03:34:38.321Z,7.59
2022-11-05T03:35:38.953Z,7.57
2022-11-05T03:36:38.943Z,7.56
2022-11-05T03:37:38.937Z,7.54
2022-11-05T03:38:38.251Z,7.53
2022-11-05T03:39:38.918Z,7.51
2022-11-05T03:40:38.258Z,7.49
2022-11-05T03:41:38.221Z,7.48
2022-11-05T03:42:38.201Z,7.47
2022-11-05T03:43:38.872Z,7.47
2022-11-05T03:44:38.865Z,7.46
2022-11-05T03:45:38.854Z,7.43
2022-11-05T03:46:38.213Z,7.42
2022-11-05T03:47:38.159Z,7.41
2022-11-05T03:48:38.873Z,7.41
2022-11-05T03:49:38.140Z,7.41
2022-11-05T03:50:41.439Z,7.41
2022-11-05T03:51:38.792Z,7.40
2022-11-05T03:52:38.834Z,7.39
2022-11-05T03:53:38.113Z,7.38
2022-11-05T03:54:38.063Z,7.38
2022-11-05T03:55:38.066Z,7.37
2022-11-05T03:56:38.758Z,7.36
2022-11-05T03:57:40.034Z,7.36
2022-11-05T03:58:39.474Z,7.34
2022-11-05T03:59:38.693Z,7.32
2022-11-05T04:00:38.125Z,7.33
2022-11-05T04:01:38.206Z,7.32
2022-11-05T04:02:38.052Z,7.32
2022-11-05T04:03:38.024Z,7.32
2022-11-05T04:04:38.014Z,7.29
2022-11-05T04:05:38.645Z,7.29
2022-11-05T04:06:37.934Z,7.29
2022-11-05T04:07:38.613Z,7.28
2022-11-05T04:08:37.945Z,7.26
2022-11-05T04:09:38.584Z,7.24
2022-11-05T04:10:38.645Z,7.23
2022-11-05T04:11:38.566Z,7.21
2022-11-05T04:12:37.898Z,7.20
2022-11-05T04:13:37.864Z,7.18
2022-11-05T04:14:38.538Z,7.16
2022-11-05T04:15:37.866Z,7.14
2022-11-05T04:16:38.875Z,7.12
2022-11-05T04:17:37.815Z,7.10
2022-11-05T04:18:37.807Z,7.08
2022-11-05T04:19:37.826Z,7.07
2022-11-05T04:20:38.467Z,7.05
2022-11-05T04:21:38.467Z,7.03
2022-11-05T04:22:38.527Z,7.01
2022-11-05T04:23:38.716Z,7.00
2022-11-05T04:24:37.737Z,6.98
2022-11-05T04:25:38.409Z,6.97
2022-11-05T04:26:38.398Z,6.95
2022-11-05T04:27:38.391Z,6.95
2022-11-05T04:28:38.379Z,6.93
2022-11-05T04:29:37.679Z,6.93
2022-11-05T04:30:39.108Z,6.92
2022-11-05T04:31:38.348Z,6.91
2022-11-05T04:32:38.337Z,6.90
2022-11-05T04:33:38.328Z,6.89
2022-11-05T04:34:37.729Z,6.89
2022-11-05T04:35:37.618Z,6.89
2022-11-05T04:36:38.291Z,6.87
2022-11-05T04:37:38.279Z,6.86
2022-11-05T04:38:38.270Z,6.84
2022-11-05T04:39:38.259Z,6.83
2022-11-05T04:40:38.251Z,6.82
2022-11-05T04:41:37.565Z,6.80
2022-11-05T04:42:37.552Z,6.78
2022-11-05T04:43:37.548Z,6.75
2022-11-05T04:44:38.211Z,6.74
2022-11-05T04:45:38.198Z,6.73
2022-11-05T04:46:38.171Z,6.73
2022-11-05T04:47:38.177Z,6.71
2022-11-05T04:48:38.177Z,6.70
2022-11-05T04:49:37.461Z,6.69
2022-11-05T04:50:37.451Z,6.68
2022-11-05T04:51:37.448Z,6.70
2022-11-05T04:52:37.535Z,6.66
2022-11-05T04:53:37.455Z,6.66
2022-11-05T04:54:37.403Z,6.64
2022-11-05T04:55:38.094Z,6.64
2022-11-05T04:56:38.071Z,6.62
2022-11-05T04:57:38.073Z,6.62
2022-11-05T04:58:38.037Z,6.61
2022-11-05T04:59:38.294Z,6.62
2022-11-05T05:00:37.412Z,6.60
2022-11-05T05:01:38.119Z,6.61
2022-11-05T05:02:38.019Z,6.59
2022-11-05T05:03:37.998Z,6.59
2022-11-05T05:04:37.986Z,6.56
2022-11-05T05:05:37.984Z,6.55
2022-11-05T05:06:37.295Z,6.52
2022-11-05T05:07:39.203Z,6.51
2022-11-05T05:08:37.953Z,6.49
2022-11-05T05:09:37.944Z,6.47
2022-11-05T05:10:37.355Z,6.45
2022-11-05T05:11:37.249Z,6.44
2022-11-05T05:12:37.906Z,6.41
2022-11-05T05:13:37.908Z,6.40
2022-11-05T05:14:37.886Z,6.38
2022-11-05T05:15:37.865Z,6.36
2022-11-05T05:16:37.187Z,6.34
2022-11-05T05:17:37.164Z,6.33
2022-11-05T05:18:40.974Z,6.30
2022-11-05T05:19:38.838Z,6.29
2022-11-05T05:20:37.825Z,6.27
2022-11-05T05:21:37.127Z,6.25
2022-11-05T05:22:37.128Z,6.24
2022-11-05T05:23:37.336Z,6.23
2022-11-05T05:24:37.776Z,6.22
2022-11-05T05:25:37.771Z,6.20
2022-11-05T05:26:37.758Z,6.20
2022-11-05T05:27:37.767Z,6.19
2022-11-05T05:28:37.095Z,6.19
2022-11-05T05:29:37.107Z,6.19
2022-11-05T05:30:37.733Z,6.17
2022-11-05T05:31:37.705Z,6.16
2022-11-05T05:32:36.998Z,6.16
2022-11-05T05:33:37.098Z,6.15
2022-11-05T05:34:37.016Z,6.14
2022-11-05T05:35:37.659Z,6.12
2022-11-05T05:36:37.649Z,6.11
2022-11-05T05:37:36.976Z,6.11
2022-11-05T05:38:37.069Z,6.09
2022-11-05T05:39:36.939Z,6.08
2022-11-05T05:40:37.613Z,6.07
2022-11-05T05:41:37.594Z,6.05
2022-11-05T05:42:42.869Z,6.04
2022-11-05T05:43:37.900Z,6.03
2022-11-05T05:44:36.881Z,6.02
2022-11-05T05:45:37.557Z,5.99
2022-11-05T05:46:36.893Z,5.98
2022-11-05T05:47:37.542Z,5.97
2022-11-05T05:48:37.547Z,5.95
2022-11-05T05:49:37.522Z,5.94
2022-11-05T05:50:36.822Z,5.92
2022-11-05T05:51:36.868Z,5.90
2022-11-05T05:52:37.483Z,5.89
2022-11-05T05:53:36.793Z,5.88
2022-11-05T05:54:42.528Z,5.87
2022-11-05T05:55:37.778Z,5.86
2022-11-05T05:56:36.751Z,5.84
2022-11-05T05:57:37.431Z,5.83
2022-11-05T05:58:37.426Z,5.81
2022-11-05T05:59:37.404Z,5.81
2022-11-05T06:00:37.393Z,5.79
2022-11-05T06:01:37.555Z,5.78
2022-11-05T06:02:36.767Z,5.77
2022-11-05T06:03:36.702Z,5.77
2022-11-05T06:04:36.663Z,5.76
2022-11-05T06:05:37.333Z,5.76
2022-11-05T06:06:38.104Z,5.75
2022-11-05T06:07:37.603Z,5.75
2022-11-05T06:08:37.313Z,5.75
2022-11-05T06:09:37.374Z,5.75
2022-11-05T06:10:37.393Z,5.75
2022-11-05T06:11:37.273Z,5.75
2022-11-05T06:12:37.264Z,5.75
2022-11-05T06:13:37.259Z,5.75
2022-11-05T06:14:36.555Z,5.76
2022-11-05T06:15:36.585Z,5.76
2022-11-05T06:16:37.216Z,5.76
2022-11-05T06:17:37.215Z,5.76
2022-11-05T06:18:37.216Z,5.77
2022-11-05T06:19:37.195Z,5.77
2022-11-05T06:20:36.521Z,5.77
2022-11-05T06:21:37.164Z,5.77
2022-11-05T06:22:37.158Z,5.78
2022-11-05T06:23:37.926Z,5.77
2022-11-05T06:24:37.136Z,5.78
2022-11-05T06:25:41.063Z,5.77
2022-11-05T06:26:38.108Z,5.77
2022-11-05T06:27:37.107Z,5.76
2022-11-05T06:28:37.088Z,5.76
2022-11-05T06:29:36.455Z,5.75
2022-11-05T06:30:36.385Z,5.75
2022-11-05T06:31:36.368Z,5.74
2022-11-05T06:32:36.396Z,5.73
2022-11-05T06:33:36.340Z,5.73
2022-11-05T06:34:36.365Z,5.72
2022-11-05T06:35:36.310Z,5.71
2022-11-05T06:36:36.377Z,5.71
2022-11-05T06:37:36.996Z,5.70
2022-11-05T06:38:36.329Z,5.70
2022-11-05T06:39:36.335Z,5.70
2022-11-05T06:40:36.277Z,5.70
2022-11-05T06:41:56.911Z,5.71
2022-11-05T06:42:37.277Z,5.71
2022-11-05T06:43:36.263Z,5.74
2022-11-05T06:44:36.896Z,5.76
2022-11-05T06:45:36.246Z,5.77
2022-11-05T06:46:36.898Z,5.78
2022-11-05T06:47:36.928Z,5.80
2022-11-05T06:48:36.197Z,5.82
2022-11-05T06:49:36.377Z,5.84
2022-11-05T06:50:36.183Z,5.86
2022-11-05T06:51:36.161Z,5.88
2022-11-05T06:52:40.877Z,5.91
2022-11-05T06:53:36.129Z,5.93
2022-11-05T06:54:36.138Z,5.95
2022-11-05T06:55:36.799Z,5.98
2022-11-05T06:56:36.859Z,6.01
2022-11-05T06:57:36.780Z,6.04
2022-11-05T06:58:36.769Z,6.08
2022-11-05T06:59:36.070Z,6.11
2022-11-05T07:00:36.130Z,6.15
2022-11-05T07:01:37.677Z,6.18
2022-11-05T07:02:36.714Z,6.20
2022-11-05T07:03:36.711Z,6.24
2022-11-05T07:04:36.712Z,6.26
2022-11-05T07:05:36.002Z,6.29
2022-11-05T07:06:37.193Z,6.30
2022-11-05T07:07:36.669Z,6.32
2022-11-05T07:08:37.451Z,6.35
2022-11-05T07:09:35.969Z,6.37
2022-11-05T07:10:36.640Z,6.39
2022-11-05T07:11:35.961Z,6.40
2022-11-05T07:12:36.615Z,6.41
2022-11-05T07:13:36.611Z,6.44
2022-11-05T07:14:35.944Z,6.46
2022-11-05T07:15:36.662Z,6.48
2022-11-05T07:16:36.573Z,6.50
2022-11-05T07:17:36.560Z,6.52
2022-11-05T07:18:36.551Z,6.55
2022-11-05T07:19:36.543Z,6.59
2022-11-05T07:20:36.625Z,6.64
2022-11-05T07:21:35.873Z,6.70
2022-11-05T07:22:35.834Z,6.75
2022-11-05T07:23:37.304Z,6.81
2022-11-05T07:24:35.843Z,6.84
2022-11-05T07:25:36.482Z,6.89
2022-11-05T07:26:35.808Z,6.95
2022-11-05T07:27:35.767Z,6.97
2022-11-05T07:28:36.452Z,7.01
2022-11-05T07:29:35.765Z,7.05
2022-11-05T07:30:36.433Z,7.11
2022-11-05T07:31:36.488Z,7.14
2022-11-05T07:32:36.478Z,7.20
2022-11-05T07:33:36.894Z,7.26
2022-11-05T07:34:36.388Z,7.31
2022-11-05T07:35:36.385Z,7.38
2022-11-05T07:36:35.685Z,7.46
2022-11-05T07:37:35.686Z,7.53
2022-11-05T07:38:35.720Z,7.62
2022-11-05T07:39:36.598Z,7.71
2022-11-05T07:40:35.634Z,7.79
2022-11-05T07:41:36.317Z,7.87
2022-11-05T07:42:35.663Z,8.00
2022-11-05T07:43:35.585Z,8.12
2022-11-05T07:44:35.710Z,8.20
2022-11-05T07:45:35.578Z,8.33
2022-11-05T07:46:35.568Z,8.42
2022-11-05T07:47:36.247Z,8.51
2022-11-05T07:48:36.240Z,8.59
2022-11-05T07:49:36.229Z,8.69
2022-11-05T07:50:36.195Z,8.76
2022-11-05T07:51:35.517Z,8.82
2022-11-05T07:52:35.498Z,8.88
2022-11-05T07:53:38.760Z,8.93
2022-11-05T07:54:37.168Z,8.99
2022-11-05T07:55:35.504Z,9.05
2022-11-05T07:56:36.139Z,9.11
2022-11-05T07:57:35.521Z,9.16
2022-11-05T07:58:35.471Z,9.24
2022-11-05T07:59:36.110Z,9.32
2022-11-05T08:00:36.188Z,9.44
2022-11-05T08:01:36.103Z,9.58
2022-11-05T08:02:36.212Z,9.87
2022-11-05T08:03:35.473Z,10.07
2022-11-05T08:04:36.074Z,10.31
2022-11-05T08:05:36.058Z,10.68
2022-11-05T08:06:35.372Z,11.01
2022-11-05T08:07:36.030Z,11.33
2022-11-05T08:08:36.131Z,11.69
2022-11-05T08:09:36.017Z,11.97
2022-11-05T08:10:35.326Z,12.31
2022-11-05T08:11:35.331Z,12.65
2022-11-05T08:12:36.263Z,12.96
2022-11-05T08:13:35.962Z,13.24
2022-11-05T08:14:35.945Z,13.49
2022-11-05T08:15:36.223Z,13.76
2022-11-05T08:16:35.962Z,14.01
2022-11-05T08:17:35.923Z,14.25
2022-11-05T08:18:35.243Z,14.47
2022-11-05T08:19:35.905Z,14.69
2022-11-05T08:20:35.224Z,14.93
2022-11-05T08:21:35.886Z,15.16
2022-11-05T08:22:35.214Z,15.38
2022-11-05T08:23:36.587Z,15.60
2022-11-05T08:24:35.847Z,15.79
2022-11-05T08:25:35.836Z,16.00
2022-11-05T08:26:35.831Z,16.21
2022-11-05T08:27:35.174Z,16.40
2022-11-05T08:28:35.804Z,16.59
2022-11-05T08:29:35.798Z,16.77
2022-11-05T08:30:35.795Z,16.92
2022-11-05T08:31:35.095Z,17.06
2022-11-05T08:32:35.786Z,17.21
2022-11-05T08:33:35.748Z,17.35
2022-11-05T08:34:37.400Z,17.51
2022-11-05T08:35:35.030Z,17.65
2022-11-05T08:36:35.707Z,17.79
2022-11-05T08:37:35.699Z,17.92
2022-11-05T08:38:35.698Z,18.06
2022-11-05T08:39:35.691Z,18.18
2022-11-05T08:40:34.997Z,18.30
2022-11-05T08:41:34.979Z,18.42
2022-11-05T08:42:34.980Z,18.53
2022-11-05T08:43:34.960Z,18.64
2022-11-05T08:44:35.619Z,18.77
2022-11-05T08:45:36.514Z,18.92
2022-11-05T08:46:38.962Z,19.06
2022-11-05T08:47:35.902Z,19.18
2022-11-05T08:48:34.911Z,19.29
2022-11-05T08:49:34.920Z,19.37
2022-11-05T08:50:35.384Z,19.47
2022-11-05T08:51:35.559Z,19.56
2022-11-05T08:52:36.811Z,19.63
2022-11-05T08:53:34.851Z,19.74
2022-11-05T08:54:35.522Z,19.83
2022-11-05T08:55:35.141Z,19.95
2022-11-05T08:56:40.321Z,20.04
2022-11-05T08:57:35.525Z,20.10
2022-11-05T08:58:35.702Z,20.10
2022-11-05T08:59:34.786Z,20.01
2022-11-05T09:00:35.455Z,19.69
2022-11-05T09:01:34.963Z,19.48
2022-11-05T09:02:35.115Z,19.69
2022-11-05T09:03:35.434Z,19.84
2022-11-05T09:04:35.441Z,19.96
2022-11-05T09:05:34.715Z,20.11
2022-11-05T09:06:35.260Z,20.21
2022-11-05T09:07:35.377Z,20.29
2022-11-05T09:08:34.724Z,20.39
2022-11-05T09:09:34.872Z,20.47
2022-11-05T09:10:35.337Z,20.59
2022-11-05T09:12:05.398Z,20.72
2022-11-05T09:12:35.676Z,20.85
2022-11-05T09:13:35.316Z,20.98
2022-11-05T09:14:35.296Z,21.11
2022-11-05T09:15:34.623Z,21.23
2022-11-05T09:16:34.696Z,21.33
2022-11-05T09:17:35.266Z,21.35
2022-11-05T09:18:34.592Z,21.38
2022-11-05T09:19:39.374Z,21.40
2022-11-05T09:20:35.566Z,21.42
2022-11-05T09:21:35.230Z,21.42
2022-11-05T09:22:37.948Z,21.42
2022-11-05T09:23:35.998Z,21.42
2022-11-05T09:24:34.512Z,21.36
2022-11-05T09:25:34.537Z,21.29
2022-11-05T09:26:34.499Z,21.19
2022-11-05T09:27:35.160Z,21.12
2022-11-05T09:28:34.459Z,21.05
2022-11-05T09:29:35.150Z,20.96
2022-11-05T09:30:34.439Z,20.86
2022-11-05T09:31:35.140Z,20.78
2022-11-05T09:32:35.068Z,20.68
2022-11-05T09:33:37.111Z,20.57
2022-11-05T09:34:35.985Z,20.47
2022-11-05T09:35:35.453Z,20.38
2022-11-05T09:36:35.210Z,20.29
2022-11-05T09:37:34.492Z,20.20
2022-11-05T09:38:34.363Z,20.12
2022-11-05T09:39:35.159Z,20.04
2022-11-05T09:40:35.415Z,19.95
2022-11-05T09:41:35.253Z,19.89
2022-11-05T09:42:35.232Z,19.81
2022-11-05T09:43:35.251Z,19.74
2022-11-05T09:44:35.078Z,19.67
2022-11-05T09:45:34.974Z,19.60
2022-11-05T09:46:35.148Z,19.54
2022-11-05T09:47:34.288Z,19.47
2022-11-05T09:48:34.934Z,19.42
2022-11-05T09:49:34.367Z,19.40
2022-11-05T09:50:34.696Z,19.37
2022-11-05T09:51:34.294Z,19.31
2022-11-05T09:52:34.436Z,19.23
2022-11-05T09:53:34.924Z,19.17
2022-11-05T09:54:34.886Z,19.15
2022-11-05T09:55:34.856Z,19.19
2022-11-05T09:56:35.137Z,19.23
2022-11-05T09:57:34.325Z,19.28
2022-11-05T09:58:34.163Z,19.27
2022-11-05T09:59:34.149Z,19.23
2022-11-05T10:00:34.360Z,19.19
2022-11-05T10:01:35.486Z,19.11
2022-11-05T10:02:34.748Z,19.04
2022-11-05T10:03:37.744Z,18.95
2022-11-05T10:04:34.827Z,18.85
2022-11-05T10:05:34.175Z,18.74
2022-11-05T10:06:34.361Z,18.57
2022-11-05T10:07:35.036Z,18.44
2022-11-05T10:08:34.083Z,18.36
2022-11-05T10:09:34.158Z,18.28
2022-11-05T10:10:40.317Z,18.19
2022-11-05T10:11:35.741Z,18.10
2022-11-05T10:12:34.672Z,18.02
2022-11-05T10:13:34.023Z,17.95
2022-11-05T10:14:34.723Z,17.89
2022-11-05T10:15:34.042Z,17.83
2022-11-05T10:16:34.636Z,17.75
2022-11-05T10:17:38.877Z,17.67
2022-11-05T10:18:35.044Z,17.59
2022-11-05T10:19:34.155Z,17.50
2022-11-05T10:20:34.477Z,17.39
2022-11-05T10:22:04.237Z,17.31
2022-11-05T10:22:34.924Z,17.23
2022-11-05T10:23:35.118Z,17.15
2022-11-05T10:24:34.549Z,17.07
2022-11-05T10:25:33.853Z,16.97
2022-11-05T10:26:34.519Z,16.87
2022-11-05T10:27:33.866Z,16.77
2022-11-05T10:28:33.878Z,16.67
2022-11-05T10:29:34.770Z,16.57
2022-11-05T10:30:34.478Z,16.46
2022-11-05T10:31:35.592Z,16.38
2022-11-05T10:32:34.544Z,16.31
2022-11-05T10:33:33.789Z,16.23
2022-11-05T10:34:33.802Z,16.16
2022-11-05T10:35:34.428Z,16.10
2022-11-05T10:36:33.808Z,16.04
2022-11-05T10:37:39.578Z,16.00
2022-11-05T10:38:35.389Z,15.98
2022-11-05T10:39:33.776Z,15.95
2022-11-05T10:40:34.359Z,15.91
2022-11-05T10:41:33.669Z,15.86
2022-11-05T10:42:34.356Z,15.82
2022-11-05T10:43:34.602Z,15.76
2022-11-05T10:44:34.391Z,15.72
2022-11-05T10:45:33.726Z,15.69
2022-11-05T10:46:34.310Z,15.64
2022-11-05T10:47:33.691Z,15.59
2022-11-05T10:48:40.697Z,15.56
2022-11-05T10:49:35.591Z,15.51
2022-11-05T10:50:33.635Z,15.48
2022-11-05T10:51:33.661Z,15.45
2022-11-05T10:52:34.242Z,15.42
2022-11-05T10:54:17.568Z,15.34
2022-11-05T10:55:16.139Z,15.39
2022-11-05T10:56:16.800Z,15.41
2022-11-05T10:57:16.453Z,15.42
2022-11-05T10:58:16.089Z,15.44
2022-11-05T10:59:16.771Z,15.43
2022-11-05T11:00:16.296Z,15.43
2022-11-05T11:01:16.166Z,15.41
2022-11-05T11:02:16.086Z,15.41
2022-11-05T11:03:16.712Z,15.43
2022-11-05T11:04:16.064Z,15.44
2022-11-05T11:05:16.103Z,15.43
2022-11-05T11:06:16.718Z,15.43
2022-11-05T11:07:16.232Z,15.44
2022-11-05T11:08:16.661Z,15.46
2022-11-05T11:09:16.653Z,15.47
2022-11-05T11:10:15.972Z,15.48
2022-11-05T11:11:16.652Z,15.50
2022-11-05T11:12:16.001Z,15.51
2022-11-05T11:13:15.942Z,15.53
2022-11-05T11:14:16.592Z,15.56
2022-11-05T11:15:15.990Z,15.59
2022-11-05T11:16:16.583Z,15.63
2022-11-05T11:17:15.976Z,15.66
2022-11-05T11:18:16.580Z,15.67
2022-11-05T11:19:16.515Z,15.68
2022-11-05T11:20:16.549Z,15.68
2022-11-05T11:21:15.855Z,15.68
2022-11-05T11:22:15.897Z,15.67
2022-11-05T11:23:16.147Z,15.67
2022-11-05T11:24:15.814Z,15.68
2022-11-05T11:25:15.902Z,15.70
2022-11-05T11:26:15.788Z,15.72
2022-11-05T11:27:15.784Z,15.74
2022-11-05T11:28:16.437Z,15.75
2022-11-05T11:29:15.784Z,15.76
2022-11-05T11:30:16.457Z,15.79
2022-11-05T11:31:16.397Z,15.80
2022-11-05T11:32:16.602Z,15.82
2022-11-05T11:33:15.758Z,15.81
2022-11-05T11:34:16.681Z,15.81
2022-11-05T11:35:16.362Z,15.82
2022-11-05T11:36:16.365Z,15.83
2022-11-05T11:37:19.445Z,15.84
2022-11-05T11:38:15.649Z,15.85
2022-11-05T11:39:16.319Z,15.84
2022-11-05T11:40:16.340Z,15.83
2022-11-05T11:41:16.301Z,15.83
2022-11-05T11:42:15.680Z,15.81
2022-11-05T11:43:16.539Z,15.80
2022-11-05T11:44:15.600Z,15.79
2022-11-05T11:45:15.630Z,15.79
2022-11-05T11:46:15.562Z,15.83
2022-11-05T11:47:16.233Z,15.85
2022-11-05T11:48:16.229Z,15.85
2022-11-05T11:49:16.194Z,15.85
2022-11-05T11:50:16.210Z,15.85
2022-11-05T11:51:16.198Z,15.85
2022-11-05T11:52:15.538Z,15.87
2022-11-05T11:53:16.163Z,15.89
2022-11-05T11:54:16.174Z,15.88
2022-11-05T11:55:15.604Z,15.86
2022-11-05T11:56:15.627Z,15.84
2022-11-05T11:57:15.431Z,15.83
2022-11-05T11:58:16.104Z,15.82
2022-11-05T11:59:15.475Z,15.81
2022-11-05T12:00:15.520Z,15.80
2022-11-05T12:01:16.165Z,15.80
2022-11-05T12:02:15.521Z,15.81
2022-11-05T12:03:16.316Z,15.80
2022-11-05T12:04:15.378Z,15.79
2022-11-05T12:05:15.376Z,15.79
2022-11-05T12:06:15.333Z,15.81
2022-11-05T12:07:15.399Z,15.83
2022-11-05T12:08:16.033Z,15.85
2022-11-05T12:09:15.328Z,15.86
2022-11-05T12:10:15.329Z,15.84
2022-11-05T12:11:16.015Z,15.85
2022-11-05T12:12:15.342Z,15.84
2022-11-05T12:13:15.378Z,15.83
2022-11-05T12:14:15.272Z,15.82
2022-11-05T12:15:15.360Z,15.81
2022-11-05T12:16:15.919Z,15.80
2022-11-05T12:17:15.930Z,15.80
2022-11-05T12:18:16.094Z,15.78
2022-11-05T12:19:16.059Z,15.79
2022-11-05T12:20:15.896Z,15.80
2022-11-05T12:21:29.310Z,15.81
2022-11-05T12:22:17.620Z,15.83
2022-11-05T12:23:15.251Z,15.84
2022-11-05T12:24:15.202Z,15.85
2022-11-05T12:25:15.901Z,15.84
2022-11-05T12:26:15.183Z,15.83
2022-11-05T12:27:15.285Z,15.83
2022-11-05T12:28:15.112Z,15.82
2022-11-05T12:29:19.284Z,15.81
2022-11-05T12:30:15.763Z,15.80
2022-11-05T12:31:16.122Z,15.79
2022-11-05T12:32:15.109Z,15.76
2022-11-05T12:33:16.370Z,15.74
2022-11-05T12:34:15.066Z,15.73
2022-11-05T12:35:15.731Z,15.73
2022-11-05T12:36:15.016Z,15.74
2022-11-05T12:37:15.690Z,15.76
2022-11-05T12:38:15.685Z,15.77
2022-11-05T12:39:15.655Z,15.83
2022-11-05T12:40:15.074Z,15.87
2022-11-05T12:41:15.076Z,15.93
2022-11-05T12:42:15.637Z,16.00
2022-11-05T12:43:15.813Z,16.08
2022-11-05T12:44:14.947Z,16.17
2022-11-05T12:45:14.962Z,16.25
2022-11-05T12:46:15.586Z,16.32
2022-11-05T12:47:15.015Z,16.37
2022-11-05T12:48:14.878Z,16.43
2022-11-05T12:49:15.556Z,16.48
2022-11-05T12:50:14.876Z,16.52
2022-11-05T12:51:14.896Z,16.54
2022-11-05T12:52:14.869Z,16.55
2022-11-05T12:53:15.509Z,16.55
2022-11-05T12:54:15.498Z,16.56
2022-11-05T12:55:14.901Z,16.59
2022-11-05T12:56:14.819Z,16.61
2022-11-05T12:57:14.839Z,16.65
2022-11-05T12:58:14.813Z,16.70
2022-11-05T12:59:15.460Z,16.73
2022-11-05T13:00:14.813Z,16.76
2022-11-05T13:01:16.381Z,16.76
2022-11-05T13:02:14.872Z,16.77
2022-11-05T13:03:15.670Z,16.78
2022-11-05T13:04:14.691Z,16.75
2022-11-05T13:05:15.757Z,16.73
2022-11-05T13:06:15.073Z,16.69
2022-11-05T13:07:15.593Z,16.66
2022-11-05T13:08:15.395Z,16.62
2022-11-05T13:09:15.354Z,16.60